createdAt,value
2022-08-25T00:00:14.015Z,8.38
2022-08-25T00:02:41.761Z,8.57
2022-08-25T00:05:29.097Z,9.63
2022-08-25T00:07:57.285Z,10.30
2022-08-25T00:10:24.925Z,10.02
2022-08-25T00:12:52.063Z,9.48
2022-08-25T00:15:19.297Z,9.43
2022-08-25T00:17:46.586Z,9.57
2022-08-25T00:20:13.795Z,9.13
2022-08-25T00:22:41.406Z,9.48
2022-08-25T00:25:09.811Z,9.25
2022-08-25T00:27:37.465Z,10.43
2022-08-25T00:30:06.129Z,9.68
2022-08-25T00:32:33.308Z,8.63
2022-08-25T00:35:00.811Z,8.88
2022-08-25T00:37:28.151Z,9.50
2022-08-25T00:39:57.167Z,9.75
2022-08-25T00:42:25.857Z,9.52
2022-08-25T00:44:53.828Z,9.65
2022-08-25T00:47:20.953Z,11.75
2022-08-25T00:49:57.928Z,8.82
2022-08-25T00:52:50.266Z,9.32
2022-08-25T00:55:46.470Z,10.18
2022-08-25T00:58:19.624Z,10.07
2022-08-25T01:00:49.953Z,10.60
2022-08-25T01:03:19.257Z,10.23
2022-08-25T01:05:47.732Z,9.93
2022-08-25T01:08:16.295Z,10.55
2022-08-25T01:10:45.386Z,9.65
2022-08-25T01:13:51.118Z,10.77
2022-08-25T01:16:18.408Z,10.25
2022-08-25T01:18:47.886Z,11.15
2022-08-25T01:21:18.091Z,10.50
2022-08-25T01:23:46.989Z,10.48
2022-08-25T01:26:18.480Z,10.75
2022-08-25T01:29:08.976Z,9.30
2022-08-25T01:31:39.436Z,11.13
2022-08-25T01:34:08.283Z,9.43
2022-08-25T01:36:36.399Z,9.85
2022-08-25T01:39:05.073Z,10.98
2022-08-25T01:41:34.872Z,8.75
2022-08-25T01:44:05.972Z,10.65
2022-08-25T01:46:36.523Z,8.88
2022-08-25T01:49:06.837Z,9.63
2022-08-25T01:51:43.191Z,8.95
2022-08-25T01:54:10.770Z,8.77
2022-08-25T01:56:38.710Z,9.40
2022-08-25T01:59:06.014Z,9.30
2022-08-25T02:01:33.731Z,10.15
2022-08-25T02:04:00.965Z,12.30
2022-08-25T02:06:33.191Z,9.13
2022-08-25T02:09:06.177Z,10.27
2022-08-25T02:11:35.905Z,8.98
2022-08-25T02:14:03.081Z,8.35
2022-08-25T02:16:34.080Z,8.55
2022-08-25T02:19:01.774Z,8.75
2022-08-25T02:21:29.084Z,8.25
2022-08-25T02:23:57.036Z,9.13
2022-08-25T02:26:24.369Z,8.45
2022-08-25T02:28:52.880Z,10.40
2022-08-25T02:31:22.765Z,9.55
2022-08-25T02:33:50.402Z,8.48
2022-08-25T02:36:18.177Z,9.27
2022-08-25T02:38:46.296Z,8.63
2022-08-25T02:41:19.688Z,10.40
2022-08-25T02:43:48.623Z,8.73
2022-08-25T02:46:19.956Z,8.68
2022-08-25T02:48:48.353Z,8.70
2022-08-25T02:51:15.522Z,9.52
2022-08-25T02:53:45.972Z,9.60
2022-08-25T02:56:15.232Z,9.65
2022-08-25T02:58:43.187Z,11.48
2022-08-25T03:01:12.026Z,9.05
2022-08-25T03:03:41.281Z,11.07
2022-08-25T03:06:13.515Z,8.35
2022-08-25T03:08:42.100Z,8.85
2022-08-25T03:11:10.117Z,10.75
2022-08-25T03:13:38.108Z,13.00
2022-08-25T03:16:11.071Z,11.38
2022-08-25T03:18:40.886Z,10.93
2022-08-25T03:21:08.714Z,9.23
2022-08-25T03:23:35.930Z,10.43
2022-08-25T03:26:21.890Z,9.23
2022-08-25T03:28:49.012Z,15.07
2022-08-25T03:31:16.230Z,9.57
2022-08-25T03:33:43.558Z,10.02
2022-08-25T03:36:14.613Z,10.20
2022-08-25T03:38:41.811Z,9.73
2022-08-25T03:41:18.729Z,11.60
2022-08-25T03:43:48.092Z,10.30
2022-08-25T03:46:22.261Z,12.05
2022-08-25T03:48:50.241Z,11.17
2022-08-25T03:51:26.402Z,11.77
2022-08-25T03:53:54.122Z,12.05
2022-08-25T03:56:21.355Z,12.75
2022-08-25T03:58:49.053Z,11.82
2022-08-25T04:01:16.701Z,13.43
2022-08-25T04:03:45.920Z,12.95
2022-08-25T04:06:13.992Z,11.45
2022-08-25T04:08:41.983Z,12.88
2022-08-25T04:11:10.844Z,12.05
2022-08-25T04:13:38.564Z,13.15
2022-08-25T04:16:16.595Z,12.10
2022-08-25T04:18:44.297Z,12.65
2022-08-25T04:21:12.151Z,13.23
2022-08-25T04:23:41.837Z,15.45
2022-08-25T04:26:11.048Z,12.63
2022-08-25T04:28:38.683Z,13.50
2022-08-25T04:31:07.003Z,13.35
2022-08-25T04:33:35.142Z,16.02
2022-08-25T04:36:02.775Z,12.32
2022-08-25T04:38:31.967Z,13.23
2022-08-25T04:41:03.860Z,13.75
2022-08-25T04:43:32.212Z,11.93
2022-08-25T04:46:00.445Z,13.02
2022-08-25T04:48:28.063Z,13.07
2022-08-25T04:50:55.667Z,11.90
2022-08-25T04:53:23.298Z,14.18
2022-08-25T04:55:51.037Z,13.73
2022-08-25T04:58:18.619Z,13.30
2022-08-25T05:00:46.715Z,12.98
2022-08-25T05:03:14.693Z,12.70
2022-08-25T05:05:42.417Z,12.02
2022-08-25T05:08:10.394Z,12.05
2022-08-25T05:10:42.463Z,10.93
2022-08-25T05:13:11.378Z,13.37
2022-08-25T05:15:51.295Z,12.60
2022-08-25T05:18:19.817Z,11.82
2022-08-25T05:20:47.488Z,11.43
2022-08-25T05:23:15.607Z,11.82
2022-08-25T05:25:44.639Z,11.95
2022-08-25T05:28:12.495Z,11.80
2022-08-25T05:30:41.110Z,12.73
2022-08-25T05:33:09.474Z,17.10
2022-08-25T05:35:37.337Z,13.68
2022-08-25T05:38:05.153Z,12.80
2022-08-25T05:40:34.286Z,13.45
2022-08-25T05:43:03.710Z,12.05
2022-08-25T05:45:31.887Z,11.60
2022-08-25T05:47:59.775Z,12.57
2022-08-25T05:50:27.611Z,13.35
2022-08-25T05:52:55.236Z,13.23
2022-08-25T05:55:22.957Z,15.68
2022-08-25T05:57:50.642Z,16.35
2022-08-25T06:00:18.809Z,14.23
2022-08-25T06:02:48.528Z,16.15
2022-08-25T06:05:23.527Z,13.45
2022-08-25T06:07:52.421Z,13.77
2022-08-25T06:10:20.294Z,13.98
2022-08-25T06:12:47.949Z,16.25
2022-08-25T06:15:21.260Z,15.23
2022-08-25T06:17:49.258Z,14.20
2022-08-25T06:20:18.428Z,14.77
2022-08-25T06:22:49.934Z,13.88
2022-08-25T06:25:19.272Z,16.15
2022-08-25T06:27:46.971Z,14.90
2022-08-25T06:30:20.220Z,18.08
2022-08-25T06:32:52.518Z,16.38
2022-08-25T06:35:20.526Z,15.27
2022-08-25T06:37:47.985Z,14.55
2022-08-25T06:40:16.710Z,14.32
2022-08-25T06:42:49.475Z,13.13
2022-08-25T06:45:18.586Z,15.13
2022-08-25T06:47:45.762Z,13.07
2022-08-25T06:50:13.024Z,12.93
2022-08-25T06:52:40.254Z,14.50
2022-08-25T06:55:07.629Z,13.02
2022-08-25T06:57:36.003Z,13.73
2022-08-25T07:00:08.977Z,13.00
2022-08-25T07:02:36.287Z,14.65
2022-08-25T07:05:04.664Z,15.80
2022-08-25T07:07:44.165Z,13.75
2022-08-25T07:10:12.944Z,12.55
2022-08-25T07:12:40.671Z,12.55
2022-08-25T07:15:19.871Z,15.32
2022-08-25T07:17:48.070Z,18.17
2022-08-25T07:20:16.850Z,13.27
2022-08-25T07:22:48.163Z,13.85
2022-08-25T07:25:17.869Z,15.98
2022-08-25T07:27:46.014Z,15.40
2022-08-25T07:30:13.422Z,14.50
2022-08-25T07:32:42.102Z,11.48
2022-08-25T07:35:19.067Z,15.05
2022-08-25T07:37:50.150Z,13.93
2022-08-25T07:40:24.209Z,15.45
2022-08-25T07:42:54.424Z,14.27
2022-08-25T07:45:30.404Z,14.70
2022-08-25T07:48:01.727Z,14.55
2022-08-25T07:50:31.497Z,12.82
2022-08-25T07:52:59.438Z,13.88
2022-08-25T07:55:28.592Z,14.15
2022-08-25T07:57:57.490Z,14.63
2022-08-25T08:00:28.264Z,14.30
2022-08-25T08:02:56.312Z,15.18
2022-08-25T08:05:24.402Z,14.70
2022-08-25T08:07:53.073Z,14.07
2022-08-25T08:13:10.270Z,10.70
2022-08-25T08:15:38.034Z,12.80
2022-08-25T08:18:07.138Z,13.00
2022-08-25T08:20:42.628Z,15.05
2022-08-25T08:23:11.933Z,11.35
2022-08-25T08:25:39.259Z,10.90
2022-08-25T08:28:07.718Z,11.63
2022-08-25T08:30:36.642Z,10.85
2022-08-25T08:33:10.020Z,12.27
2022-08-25T08:35:37.777Z,11.35
2022-08-25T08:38:13.562Z,11.00
2022-08-25T08:41:23.219Z,15.13
2022-08-25T08:43:56.648Z,15.35
2022-08-25T08:46:36.621Z,13.10
2022-08-25T08:49:10.656Z,13.98
2022-08-25T08:51:53.416Z,13.30
2022-08-25T08:54:26.496Z,11.35
2022-08-25T08:57:16.562Z,13.33
2022-08-25T09:00:01.092Z,10.63
2022-08-25T09:02:51.430Z,13.07
2022-08-25T09:05:23.077Z,14.45
2022-08-25T09:08:12.486Z,13.70
2022-08-25T09:11:36.634Z,9.23
2022-08-25T09:14:40.000Z,12.88
2022-08-25T09:17:36.713Z,18.23
2022-08-25T09:20:19.021Z,9.43
2022-08-25T09:22:49.564Z,10.13
2022-08-25T09:25:52.349Z,10.68
2022-08-25T09:28:43.102Z,10.05
2022-08-25T09:31:27.504Z,9.63
2022-08-25T09:33:59.909Z,11.77
2022-08-25T09:36:27.380Z,8.48
2022-08-25T09:38:54.656Z,11.77
2022-08-25T09:41:43.790Z,11.95
2022-08-25T09:44:27.595Z,10.05
2022-08-25T09:47:04.474Z,8.52
2022-08-25T09:49:37.721Z,8.43
2022-08-25T09:52:25.237Z,10.43
2022-08-25T09:54:54.552Z,6.70
2022-08-25T09:57:49.401Z,12.52
2022-08-25T10:00:33.505Z,8.05
2022-08-25T10:03:05.661Z,11.05
2022-08-25T10:05:36.609Z,9.02
2022-08-25T10:08:14.710Z,10.90
2022-08-25T10:10:54.687Z,11.45
2022-08-25T10:13:43.760Z,10.35
2022-08-25T10:16:25.093Z,10.38
2022-08-25T10:19:10.112Z,11.45
2022-08-25T10:21:39.785Z,12.25
2022-08-25T10:24:09.656Z,12.27
2022-08-25T10:27:05.410Z,12.10
2022-08-25T10:29:54.194Z,15.68
2022-08-25T10:32:40.332Z,16.48
2022-08-25T10:35:20.363Z,15.95
2022-08-25T10:38:24.111Z,14.02
2022-08-25T10:41:19.880Z,19.45
2022-08-25T10:44:31.491Z,15.18
2022-08-25T10:47:21.956Z,20.08
2022-08-25T10:49:56.409Z,17.83
2022-08-25T10:52:50.325Z,21.48
2022-08-25T10:55:28.587Z,20.10
2022-08-25T10:58:03.035Z,20.08
2022-08-25T11:00:46.541Z,20.42
2022-08-25T11:03:38.210Z,23.77
2022-08-25T11:06:12.602Z,25.15
2022-08-25T11:08:55.315Z,29.10
2022-08-25T11:11:36.144Z,27.25
2022-08-25T11:14:15.063Z,29.38
2022-08-25T11:16:48.746Z,27.63
2022-08-25T11:19:36.477Z,27.25
2022-08-25T11:22:13.111Z,24.23
2022-08-25T11:25:21.656Z,25.80
2022-08-25T11:27:57.897Z,29.98
2022-08-25T11:30:26.133Z,26.00
2022-08-25T11:32:55.312Z,29.75
2022-08-25T11:35:30.413Z,24.95
2022-08-25T11:38:12.524Z,23.10
2022-08-25T11:41:13.701Z,25.60
2022-08-25T11:44:22.633Z,21.10
2022-08-25T11:47:22.066Z,24.02
2022-08-25T11:50:08.824Z,19.52
2022-08-25T11:52:49.202Z,18.15
2022-08-25T11:55:23.065Z,16.98
2022-08-25T11:58:12.832Z,18.27
2022-08-25T12:00:42.794Z,16.17
2022-08-25T12:03:41.882Z,18.05
2022-08-25T12:06:29.943Z,20.10
2022-08-25T12:09:00.206Z,18.33
2022-08-25T12:11:49.583Z,17.63
2022-08-25T12:14:37.318Z,15.20
2022-08-25T12:17:16.595Z,20.30
2022-08-25T12:19:43.764Z,19.25
2022-08-25T12:22:10.818Z,19.52
2022-08-25T12:24:47.959Z,21.70
2022-08-25T12:27:34.042Z,21.40
2022-08-25T12:30:18.646Z,20.10
2022-08-25T12:32:54.206Z,22.27
2022-08-25T12:35:53.418Z,22.30
2022-08-25T12:38:32.725Z,24.60
2022-08-25T12:41:04.792Z,25.17
2022-08-25T12:43:38.917Z,20.73
2022-08-25T12:46:25.841Z,21.70
2022-08-25T12:49:11.372Z,21.17
2022-08-25T12:51:54.508Z,21.98
2022-08-25T12:54:36.395Z,22.58
2022-08-25T12:57:36.046Z,21.25
2022-08-25T13:00:21.285Z,21.95
2022-08-25T13:03:30.346Z,23.17
2022-08-25T13:06:26.813Z,19.50
2022-08-25T13:09:39.943Z,23.25
2022-08-25T13:12:37.934Z,20.48
2022-08-25T13:15:05.626Z,22.42
2022-08-25T13:17:36.335Z,23.13
2022-08-25T13:20:23.323Z,25.15
2022-08-25T13:23:00.968Z,23.77
2022-08-25T13:25:33.270Z,22.73
2022-08-25T13:28:05.927Z,20.08
2022-08-25T13:30:36.168Z,19.90
2022-08-25T13:33:21.815Z,19.80
2022-08-25T13:36:11.407Z,15.95
2022-08-25T13:38:39.426Z,14.75
2022-08-25T13:41:09.511Z,17.02
2022-08-25T13:43:38.947Z,14.35
2022-08-25T13:46:06.684Z,11.10
2022-08-25T13:48:39.807Z,12.13
2022-08-25T13:51:17.464Z,12.23
2022-08-25T13:54:04.110Z,14.85
2022-08-25T13:56:42.089Z,12.40
2022-08-25T13:59:29.543Z,13.40
2022-08-25T14:01:57.476Z,13.18
2022-08-25T14:04:24.784Z,15.57
2022-08-25T14:07:10.768Z,14.25
2022-08-25T14:10:07.136Z,13.65
2022-08-25T14:12:46.165Z,13.73
2022-08-25T14:15:27.249Z,17.73
2022-08-25T14:18:19.417Z,15.15
2022-08-25T14:20:50.718Z,17.35
2022-08-25T14:23:24.691Z,16.13
2022-08-25T14:28:22.969Z,17.02
2022-08-25T14:30:54.366Z,16.88
2022-08-25T14:33:29.976Z,13.20
2022-08-25T14:35:59.554Z,15.40
2022-08-25T14:38:27.121Z,16.25
2022-08-25T14:40:54.903Z,14.50
2022-08-25T14:43:31.923Z,17.58
2022-08-25T14:46:02.608Z,14.10
2022-08-25T14:48:42.416Z,17.42
2022-08-25T14:51:11.998Z,16.00
2022-08-25T14:53:40.797Z,12.38
2022-08-25T14:56:10.514Z,11.40
2022-08-25T14:58:50.919Z,14.60
2022-08-25T15:01:28.903Z,14.05
2022-08-25T15:04:18.980Z,11.07
2022-08-25T15:06:51.281Z,8.05
2022-08-25T15:09:19.034Z,11.07
2022-08-25T15:11:50.787Z,10.45
2022-08-25T15:14:29.051Z,10.65
2022-08-25T15:17:01.730Z,12.52
2022-08-25T15:19:29.348Z,9.77
2022-08-25T15:21:58.002Z,7.65
2022-08-25T15:24:27.853Z,8.27
2022-08-25T15:26:58.588Z,10.85
2022-08-25T15:29:29.776Z,10.43
2022-08-25T15:31:57.945Z,10.88
2022-08-25T15:34:25.389Z,10.43
2022-08-25T15:36:52.746Z,8.98
2022-08-25T15:39:20.569Z,9.40
2022-08-25T15:41:52.259Z,9.38
2022-08-25T15:44:19.879Z,7.93
2022-08-25T15:46:49.985Z,8.45
2022-08-25T15:49:23.198Z,8.57
2022-08-25T15:51:52.700Z,11.27
2022-08-25T15:54:23.093Z,9.55
2022-08-25T15:56:50.762Z,8.57
2022-08-25T15:59:19.692Z,7.05
2022-08-25T16:01:53.443Z,10.05
2022-08-25T16:04:23.419Z,7.72
2022-08-25T16:06:51.991Z,5.15
2022-08-25T16:09:22.938Z,10.43
2022-08-25T16:11:56.865Z,9.27
2022-08-25T16:14:27.719Z,9.88
2022-08-25T16:16:58.271Z,5.05
2022-08-25T16:19:28.521Z,7.43
2022-08-25T16:21:56.219Z,5.95
2022-08-25T16:24:23.899Z,8.75
2022-08-25T16:26:52.083Z,9.38
2022-08-25T16:29:20.125Z,9.23
2022-08-25T16:31:52.956Z,10.45
2022-08-25T16:34:20.977Z,6.80
2022-08-25T16:36:48.166Z,9.13
2022-08-25T16:39:20.118Z,10.38
2022-08-25T16:41:48.649Z,11.15
2022-08-25T16:44:22.643Z,10.73
2022-08-25T16:46:54.512Z,9.18
2022-08-25T16:49:24.522Z,10.52
2022-08-25T16:51:57.646Z,9.68
2022-08-25T16:54:44.929Z,10.05
2022-08-25T16:57:12.799Z,11.35
2022-08-25T16:59:40.596Z,10.50
2022-08-25T17:02:08.734Z,9.30
2022-08-25T17:04:35.986Z,10.75
2022-08-25T17:07:04.742Z,11.70
2022-08-25T17:09:32.311Z,9.85
2022-08-25T17:11:59.512Z,8.20
2022-08-25T17:14:26.710Z,10.00
2022-08-25T17:16:55.217Z,10.85
2022-08-25T17:19:24.877Z,9.57
2022-08-25T17:21:54.866Z,7.30
2022-08-25T17:24:29.263Z,9.00
2022-08-25T17:26:59.983Z,6.75
2022-08-25T17:29:28.924Z,8.45
2022-08-25T17:31:56.038Z,7.18
2022-08-25T17:34:23.992Z,7.32
2022-08-25T17:36:52.147Z,7.97
2022-08-25T17:39:22.304Z,6.10
2022-08-25T17:41:50.631Z,6.80
2022-08-25T17:44:18.741Z,8.65
2022-08-25T17:46:48.030Z,10.02
2022-08-25T17:49:17.071Z,4.43
2022-08-25T17:51:44.327Z,9.10
2022-08-25T17:54:12.727Z,6.50
2022-08-25T17:56:39.928Z,7.72
2022-08-25T17:59:08.054Z,9.32
2022-08-25T18:01:40.584Z,6.70
2022-08-25T18:04:17.522Z,8.73
2022-08-25T18:06:47.568Z,7.00
2022-08-25T18:09:16.511Z,5.32
2022-08-25T18:11:45.714Z,6.55
2022-08-25T18:14:14.674Z,6.63
2022-08-25T18:16:42.177Z,6.35
2022-08-25T18:19:11.017Z,6.78
2022-08-25T18:21:39.532Z,7.45
2022-08-25T18:24:08.230Z,7.57
2022-08-25T18:26:35.559Z,9.20
2022-08-25T18:29:03.192Z,9.30
2022-08-25T18:31:31.251Z,7.03
2022-08-25T18:33:59.585Z,7.43
2022-08-25T18:36:26.764Z,7.70
2022-08-25T18:39:13.686Z,7.07
2022-08-25T18:41:42.490Z,9.45
2022-08-25T18:44:10.915Z,7.32
2022-08-25T18:46:39.971Z,6.90
2022-08-25T18:49:08.568Z,6.93
2022-08-25T18:51:36.324Z,10.02
2022-08-25T18:54:04.187Z,7.63
2022-08-25T18:56:31.471Z,9.07
2022-08-25T18:58:58.801Z,11.13
2022-08-25T19:01:26.060Z,8.35
2022-08-25T19:03:53.482Z,14.00
2022-08-25T19:06:20.827Z,12.50
2022-08-25T19:08:48.499Z,10.57
2022-08-25T19:11:16.653Z,6.45
2022-08-25T19:13:44.784Z,9.13
2022-08-25T19:16:20.448Z,10.10
2022-08-25T19:18:49.101Z,7.25
2022-08-25T19:21:23.561Z,10.20
2022-08-25T19:23:52.330Z,8.48
2022-08-25T19:26:20.332Z,9.10
2022-08-25T19:28:49.854Z,7.72
2022-08-25T19:31:18.798Z,7.82
2022-08-25T19:33:49.118Z,6.68
2022-08-25T19:36:17.390Z,7.57
2022-08-25T19:38:44.787Z,7.70
2022-08-25T19:41:14.511Z,7.22
2022-08-25T19:43:55.482Z,8.45
2022-08-25T19:46:35.574Z,5.05
2022-08-25T19:49:14.520Z,9.48
2022-08-25T19:51:50.528Z,5.28
2022-08-25T19:54:32.345Z,6.20
2022-08-25T19:57:00.274Z,8.52
2022-08-25T19:59:40.680Z,7.68
2022-08-25T20:02:15.514Z,4.78
2022-08-25T20:04:50.178Z,6.03
2022-08-25T20:07:19.735Z,7.53
2022-08-25T20:09:47.315Z,9.38
2022-08-25T20:14:42.853Z,7.28
2022-08-25T20:17:23.065Z,5.22
2022-08-25T20:19:55.496Z,5.57
2022-08-25T20:22:26.100Z,5.85
2022-08-25T20:24:59.355Z,7.18
2022-08-25T20:27:48.409Z,7.10
2022-08-25T20:30:20.531Z,5.55
2022-08-25T20:32:48.043Z,8.27
2022-08-25T20:35:15.399Z,5.90
2022-08-25T20:37:45.508Z,6.28
2022-08-25T20:40:15.840Z,7.72
2022-08-25T20:42:44.469Z,6.65
2022-08-25T20:45:13.479Z,4.68
2022-08-25T20:47:40.923Z,6.70
2022-08-25T20:50:09.366Z,4.55
2022-08-25T20:52:39.160Z,7.00
2022-08-25T20:55:10.649Z,4.28
2022-08-25T20:57:39.251Z,6.80
2022-08-25T21:00:07.118Z,2.28
2022-08-25T21:02:34.667Z,5.88
2022-08-25T21:05:02.677Z,7.45
2022-08-25T21:07:29.871Z,8.38
2022-08-25T21:09:57.923Z,3.50
2022-08-25T21:12:25.088Z,5.50
2022-08-25T21:14:54.110Z,4.88
2022-08-25T21:17:21.420Z,3.85
2022-08-25T21:22:21.334Z,3.35
2022-08-25T21:24:48.537Z,2.78
2022-08-25T21:27:15.743Z,4.38
2022-08-25T21:29:44.657Z,2.72
2022-08-25T21:32:24.545Z,2.55
2022-08-25T21:34:53.818Z,5.20
2022-08-25T21:37:21.536Z,3.67
2022-08-25T21:39:49.030Z,5.55
2022-08-25T21:42:16.478Z,9.55
2022-08-25T21:44:43.762Z,6.70
2022-08-25T21:47:11.050Z,2.83
2022-08-25T21:49:38.581Z,5.45
2022-08-25T21:52:06.355Z,3.45
2022-08-25T21:54:33.544Z,3.45
2022-08-25T21:57:03.831Z,3.35
2022-08-25T21:59:34.383Z,5.18
2022-08-25T22:02:05.086Z,4.05
2022-08-25T22:04:33.405Z,4.25
2022-08-25T22:07:01.025Z,5.13
2022-08-25T22:09:30.448Z,5.07
2022-08-25T22:11:59.177Z,5.20
2022-08-25T22:14:27.121Z,4.32
2022-08-25T22:16:55.296Z,5.22
2022-08-25T22:19:23.344Z,3.90
2022-08-25T22:21:53.019Z,5.18
2022-08-25T22:24:21.186Z,4.20
2022-08-25T22:26:49.269Z,4.35
2022-08-25T22:29:24.936Z,3.63
2022-08-25T22:31:53.390Z,6.25
2022-08-25T22:34:30.749Z,5.65
2022-08-25T22:37:01.309Z,5.93
2022-08-25T22:39:29.604Z,5.78
2022-08-25T22:41:57.381Z,2.75
2022-08-25T22:44:26.322Z,4.13
2022-08-25T22:46:53.641Z,5.60
2022-08-25T22:49:21.858Z,5.60
2022-08-25T22:51:49.351Z,6.78
2022-08-25T22:54:16.703Z,3.95
2022-08-25T22:56:43.786Z,5.03
2022-08-25T22:59:13.048Z,5.93
2022-08-25T23:01:42.953Z,5.97
2022-08-25T23:04:10.896Z,5.53
2022-08-25T23:06:38.475Z,5.53
2022-08-25T23:09:07.511Z,5.18
2022-08-25T23:11:38.592Z,5.43
2022-08-25T23:14:10.301Z,2.78
2022-08-25T23:16:39.493Z,3.55
2022-08-25T23:19:10.667Z,4.28
2022-08-25T23:21:56.882Z,3.53
2022-08-25T23:24:26.865Z,4.78
2022-08-25T23:27:02.347Z,6.45
2022-08-25T23:29:34.143Z,4.07
2022-08-25T23:32:01.451Z,4.25
2022-08-25T23:34:29.339Z,4.45
2022-08-25T23:36:57.381Z,4.05
2022-08-25T23:39:24.508Z,3.83
2022-08-25T23:41:52.830Z,4.85
2022-08-25T23:44:21.201Z,3.72
2022-08-25T23:46:49.232Z,5.07
2022-08-25T23:49:18.959Z,3.97
2022-08-25T23:51:48.028Z,5.35
2022-08-25T23:54:17.761Z,6.03
2022-08-25T23:56:51.894Z,3.78
